createdAt,value
2023-04-16T00:02:25.097Z,96961.53
2023-04-16T00:04:52.080Z,96965.75
2023-04-16T00:07:18.906Z,96968.84
2023-04-16T00:09:46.668Z,96962.91
2023-04-16T00:12:13.755Z,96969.09
2023-04-16T00:14:40.606Z,96975.91
2023-04-16T00:17:07.452Z,96957.72
2023-04-16T00:19:34.213Z,96964.72
2023-04-16T00:22:00.977Z,96961.41
2023-04-16T00:24:27.945Z,96966.50
2023-04-16T00:26:54.688Z,96974.91
2023-04-16T00:29:22.161Z,96967.81
2023-04-16T00:31:48.931Z,96968.59
2023-04-16T00:34:16.600Z,96977.00
2023-04-16T00:36:43.449Z,96965.81
2023-04-16T00:39:10.448Z,96970.72
2023-04-16T00:41:38.268Z,96986.63
2023-04-16T00:44:05.087Z,96980.72
2023-04-16T00:46:32.119Z,96976.25
2023-04-16T00:49:00.857Z,96980.25
2023-04-16T00:51:27.704Z,96987.72
2023-04-16T00:53:54.763Z,96990.94
2023-04-16T00:56:24.324Z,96991.44
2023-04-16T00:58:51.305Z,96989.16
2023-04-16T01:01:18.173Z,96999.81
2023-04-16T01:03:48.140Z,96999.53
2023-04-16T01:06:17.567Z,96997.28
2023-04-16T01:08:45.139Z,96987.41
2023-04-16T01:11:12.414Z,96997.28
2023-04-16T01:13:39.894Z,96996.50
2023-04-16T01:16:08.586Z,96993.03
2023-04-16T01:18:36.834Z,96990.31
2023-04-16T01:21:04.304Z,96996.00
2023-04-16T01:23:31.458Z,96996.81
2023-04-16T01:25:58.282Z,97000.31
2023-04-16T01:28:25.092Z,97003.09
2023-04-16T01:30:51.933Z,97007.91
2023-04-16T01:33:19.249Z,97017.31
2023-04-16T01:35:46.254Z,97024.28
2023-04-16T01:38:12.975Z,97019.09
2023-04-16T01:40:39.724Z,97020.16
2023-04-16T01:43:06.456Z,97025.75
2023-04-16T01:45:34.599Z,97016.06
2023-04-16T01:48:01.603Z,97022.50
2023-04-16T01:50:29.793Z,97027.97
2023-04-16T01:52:56.654Z,97015.28
2023-04-16T01:55:23.567Z,97028.75
2023-04-16T01:57:55.714Z,97034.69
2023-04-16T02:00:26.487Z,97031.06
2023-04-16T02:02:53.731Z,97030.44
2023-04-16T02:05:20.601Z,97026.13
2023-04-16T02:07:47.328Z,97040.63
2023-04-16T02:10:14.184Z,97027.06
2023-04-16T02:12:40.847Z,97038.03
2023-04-16T02:15:08.115Z,97044.38
2023-04-16T02:21:06.744Z,97045.19
2023-04-16T02:23:33.684Z,97040.63
2023-04-16T02:26:01.397Z,97042.72
2023-04-16T02:28:28.268Z,97032.53
2023-04-16T02:30:54.979Z,97045.97
2023-04-16T02:33:21.705Z,97041.91
2023-04-16T02:35:48.964Z,97040.00
2023-04-16T02:38:15.667Z,97036.81
2023-04-16T02:40:42.363Z,97041.91
2023-04-16T02:43:09.168Z,97042.19
2023-04-16T02:45:35.812Z,97039.53
2023-04-16T02:48:02.784Z,97048.25
2023-04-16T02:50:29.619Z,97049.28
2023-04-16T02:52:56.345Z,97056.78
2023-04-16T02:55:23.082Z,97017.38
2023-04-16T02:57:49.990Z,97046.91
2023-04-16T03:00:16.888Z,97054.22
2023-04-16T03:02:43.729Z,97052.91
2023-04-16T03:05:12.141Z,97054.34
2023-04-16T03:07:40.833Z,97054.03
2023-04-16T03:10:08.258Z,97047.44
2023-04-16T03:12:35.801Z,97018.53
2023-04-16T03:15:02.661Z,97046.88
2023-04-16T03:17:29.589Z,97065.84
2023-04-16T03:19:56.450Z,97068.38
2023-04-16T03:22:23.620Z,97081.53
2023-04-16T03:24:50.486Z,97084.81
2023-04-16T03:27:17.349Z,97061.97
2023-04-16T03:29:44.063Z,97079.94
2023-04-16T03:32:12.721Z,97088.38
2023-04-16T03:34:39.667Z,97085.16
2023-04-16T03:37:06.450Z,97076.31
2023-04-16T03:39:34.378Z,97083.88
2023-04-16T03:42:02.418Z,97075.09
2023-04-16T03:44:30.080Z,97090.78
2023-04-16T03:46:56.939Z,97093.53
2023-04-16T03:49:23.746Z,97099.31
2023-04-16T03:51:50.513Z,97101.06
2023-04-16T03:54:17.370Z,97080.53
2023-04-16T03:56:44.295Z,97100.72
2023-04-16T03:59:11.238Z,97074.97
2023-04-16T04:01:38.099Z,97118.06
2023-04-16T04:04:05.140Z,97119.44
2023-04-16T04:06:32.714Z,97119.94
2023-04-16T04:09:01.463Z,97121.44
2023-04-16T04:11:28.175Z,97123.44
2023-04-16T04:13:54.879Z,97099.44
2023-04-16T04:16:56.824Z,97125.22
2023-04-16T04:19:23.556Z,97133.94
2023-04-16T04:21:50.260Z,97120.81
2023-04-16T04:24:16.941Z,97122.72
2023-04-16T04:26:43.638Z,97143.22
2023-04-16T04:29:10.621Z,97134.81
2023-04-16T04:31:37.478Z,97140.91
2023-04-16T04:34:04.270Z,97154.41
2023-04-16T04:36:31.352Z,97158.22
2023-04-16T04:38:58.076Z,97146.81
2023-04-16T04:41:24.800Z,97147.47
2023-04-16T04:43:51.737Z,97153.56
2023-04-16T04:46:18.530Z,97160.53
2023-04-16T04:48:45.390Z,97156.63
2023-04-16T04:51:12.208Z,97161.28
2023-04-16T04:53:38.905Z,97165.50
2023-04-16T04:56:12.248Z,97168.13
2023-04-16T04:58:39.433Z,97166.91
2023-04-16T05:01:06.369Z,97173.31
2023-04-16T05:03:33.168Z,97161.78
2023-04-16T05:06:00.094Z,97169.66
2023-04-16T05:08:27.240Z,97186.47
2023-04-16T05:10:54.173Z,97194.69
2023-04-16T05:13:20.810Z,97172.81
2023-04-16T05:15:47.445Z,97202.03
2023-04-16T05:18:14.138Z,97168.56
2023-04-16T05:20:40.989Z,97184.47
2023-04-16T05:23:07.809Z,97182.91
2023-04-16T05:25:34.635Z,97190.78
2023-04-16T05:28:01.314Z,97193.53
2023-04-16T05:30:27.978Z,97188.91
2023-04-16T05:32:54.821Z,97194.06
2023-04-16T05:35:21.634Z,97185.31
2023-04-16T05:37:48.290Z,97189.78
2023-04-16T05:40:15.097Z,97193.66
2023-04-16T05:42:41.810Z,97194.91
2023-04-16T05:45:09.110Z,97205.28
2023-04-16T05:47:35.764Z,97197.81
2023-04-16T05:50:02.483Z,97220.38
2023-04-16T05:52:29.170Z,97227.59
2023-04-16T05:54:56.086Z,97218.66
2023-04-16T05:57:22.789Z,97224.09
2023-04-16T05:59:49.514Z,97227.41
2023-04-16T06:02:22.255Z,97227.41
2023-04-16T06:04:50.140Z,97237.66
2023-04-16T06:07:16.868Z,97228.41
2023-04-16T06:09:45.380Z,97245.78
2023-04-16T06:12:12.161Z,97247.06
2023-04-16T06:14:38.890Z,97263.19
2023-04-16T06:17:05.696Z,97254.09
2023-04-16T06:19:32.706Z,97243.38
2023-04-16T06:21:59.628Z,97236.53
2023-04-16T06:24:26.320Z,97248.34
2023-04-16T06:26:54.851Z,97272.63
2023-04-16T06:29:27.916Z,97280.16
2023-04-16T06:32:00.335Z,97285.88
2023-04-16T06:34:28.896Z,97276.81
2023-04-16T06:36:55.878Z,97275.69
2023-04-16T06:39:22.550Z,97282.09
2023-04-16T06:41:49.505Z,97269.63
2023-04-16T06:44:16.468Z,97261.34
2023-04-16T06:46:43.237Z,97271.25
2023-04-16T06:49:11.400Z,97272.53
2023-04-16T06:51:38.359Z,97265.19
2023-04-16T06:54:05.050Z,97263.75
2023-04-16T06:56:32.655Z,97255.31
2023-04-16T06:59:01.087Z,97270.47
2023-04-16T07:01:28.852Z,97217.78
2023-04-16T07:03:55.815Z,97266.00
2023-04-16T07:06:22.792Z,97270.16
2023-04-16T07:08:49.513Z,97247.47
2023-04-16T07:11:16.569Z,97277.47
2023-04-16T07:13:43.383Z,97285.94
2023-04-16T07:16:10.073Z,97285.75
2023-04-16T07:18:36.795Z,97287.97
2023-04-16T07:21:04.307Z,97290.41
2023-04-16T07:23:31.617Z,97290.56
2023-04-16T07:25:58.311Z,97298.88
2023-04-16T07:28:26.086Z,97299.03
2023-04-16T07:30:52.864Z,97269.16
2023-04-16T07:33:19.655Z,97288.44
2023-04-16T07:35:46.391Z,97299.44
2023-04-16T07:38:14.916Z,97307.13
2023-04-16T07:40:41.883Z,97305.50
2023-04-16T07:43:09.018Z,97317.06
2023-04-16T07:45:35.923Z,97313.91
2023-04-16T07:48:02.806Z,97318.56
2023-04-16T07:50:29.557Z,97326.34
2023-04-16T07:52:56.307Z,97335.44
2023-04-16T07:55:23.037Z,97323.50
2023-04-16T07:57:49.845Z,97330.00
2023-04-16T08:00:16.763Z,97325.84
2023-04-16T08:02:44.598Z,97332.66
2023-04-16T08:05:12.700Z,97335.69
2023-04-16T08:07:39.716Z,97330.28
2023-04-16T08:10:06.947Z,97339.69
2023-04-16T08:12:33.829Z,97344.31
2023-04-16T08:15:00.550Z,97346.44
2023-04-16T08:17:28.872Z,97348.00
2023-04-16T08:19:55.641Z,97352.50
2023-04-16T08:22:22.810Z,97350.59
2023-04-16T08:24:49.568Z,97352.97
2023-04-16T08:27:19.689Z,97354.25
2023-04-16T08:29:48.574Z,97362.00
2023-04-16T08:32:16.357Z,97351.53
2023-04-16T08:34:43.433Z,97358.16
2023-04-16T08:37:14.279Z,97357.81
2023-04-16T08:39:41.474Z,97365.91
2023-04-16T08:42:17.463Z,97364.03
2023-04-16T08:44:49.965Z,97362.72
2023-04-16T08:47:23.250Z,97368.00
2023-04-16T08:49:50.629Z,97347.31
2023-04-16T08:52:22.615Z,97360.44
2023-04-16T08:55:15.015Z,97368.53
2023-04-16T08:57:53.967Z,97372.88
2023-04-16T09:00:22.130Z,97364.97
2023-04-16T09:02:50.576Z,97378.53
2023-04-16T09:05:18.360Z,97383.75
2023-04-16T09:07:48.012Z,97389.09
2023-04-16T09:10:15.792Z,97388.28
2023-04-16T09:12:43.253Z,97390.47
2023-04-16T09:15:11.823Z,97391.63
2023-04-16T09:17:39.715Z,97380.31
2023-04-16T09:20:11.329Z,97385.88
2023-04-16T09:22:40.548Z,97385.44
2023-04-16T09:25:07.923Z,97381.53
2023-04-16T09:27:34.583Z,97371.16
2023-04-16T09:30:01.523Z,97371.75
2023-04-16T09:32:29.296Z,97379.97
2023-04-16T09:35:01.411Z,97373.31
2023-04-16T09:37:32.612Z,97357.13
2023-04-16T09:40:04.193Z,97373.03
2023-04-16T09:42:37.468Z,97379.69
2023-04-16T09:45:05.947Z,97382.53
2023-04-16T09:47:43.329Z,97373.34
2023-04-16T09:50:16.463Z,97360.56
2023-04-16T09:52:48.230Z,97367.09
2023-04-16T09:55:14.956Z,97360.63
2023-04-16T09:57:41.669Z,97366.91
2023-04-16T10:00:13.968Z,97358.00
2023-04-16T10:02:43.183Z,97367.13
2023-04-16T10:05:14.721Z,97358.25
2023-04-16T10:07:42.106Z,97357.03
2023-04-16T10:10:09.970Z,97321.34
2023-04-16T10:12:37.417Z,97368.09
2023-04-16T10:15:05.499Z,97329.69
2023-04-16T10:17:33.826Z,97367.38
2023-04-16T10:20:02.679Z,97359.97
2023-04-16T10:22:30.296Z,97351.38
2023-04-16T10:24:59.055Z,97350.00
2023-04-16T10:27:28.542Z,97362.09
2023-04-16T10:29:55.684Z,97365.34
2023-04-16T10:32:23.549Z,97366.06
2023-04-16T10:34:50.407Z,97367.75
2023-04-16T10:37:18.793Z,97371.97
2023-04-16T10:39:45.518Z,97365.34
2023-04-16T10:42:13.204Z,97378.56
2023-04-16T10:44:45.427Z,97358.38
2023-04-16T10:47:14.158Z,97366.06
2023-04-16T10:49:42.655Z,97379.50
2023-04-16T10:52:17.469Z,97371.31
2023-04-16T10:54:44.562Z,97367.59
2023-04-16T10:57:19.867Z,97360.88
2023-04-16T10:59:49.336Z,97369.69
2023-04-16T11:02:19.854Z,97361.66
2023-04-16T11:04:49.996Z,97368.41
2023-04-16T11:07:21.870Z,97375.59
2023-04-16T11:10:02.602Z,97375.97
2023-04-16T11:12:29.416Z,97384.50
2023-04-16T11:15:03.017Z,97376.50
2023-04-16T11:17:36.629Z,97389.78
2023-04-16T11:20:05.411Z,97384.06
2023-04-16T11:22:48.324Z,97385.16
2023-04-16T11:25:21.538Z,97395.84
2023-04-16T11:27:48.590Z,97379.22
2023-04-16T11:30:15.632Z,97391.06
2023-04-16T11:32:44.575Z,97384.13
2023-04-16T11:35:17.264Z,97403.22
2023-04-16T11:37:47.077Z,97389.78
2023-04-16T11:40:17.277Z,97401.47
2023-04-16T11:42:44.688Z,97387.00
2023-04-16T11:45:12.724Z,97396.56
2023-04-16T11:47:55.523Z,97394.59
2023-04-16T11:50:27.762Z,97397.06
2023-04-16T11:53:04.818Z,97361.78
2023-04-16T11:55:31.632Z,97386.09
2023-04-16T11:58:11.284Z,97384.84
2023-04-16T12:00:37.977Z,97399.72
2023-04-16T12:03:04.923Z,97388.59
2023-04-16T12:05:37.382Z,97389.69
2023-04-16T12:08:09.705Z,97380.66
2023-04-16T12:10:58.509Z,97389.91
2023-04-16T12:13:25.311Z,97384.84
2023-04-16T12:15:53.866Z,97387.56
2023-04-16T12:18:26.355Z,97391.00
2023-04-16T12:20:53.305Z,97390.88
2023-04-16T12:23:31.495Z,97379.28
2023-04-16T12:26:02.967Z,97388.59
2023-04-16T12:28:35.167Z,97378.72
2023-04-16T12:31:04.037Z,97367.91
2023-04-16T12:33:31.455Z,97362.44
2023-04-16T12:35:58.317Z,97360.50
2023-04-16T12:38:26.434Z,97378.44
2023-04-16T12:40:57.101Z,97380.13
2023-04-16T12:43:24.379Z,97352.31
2023-04-16T12:45:51.252Z,97375.00
2023-04-16T12:48:18.995Z,97364.16
2023-04-16T12:50:46.405Z,97365.19
2023-04-16T12:53:13.205Z,97359.16
2023-04-16T12:55:40.044Z,97365.41
2023-04-16T12:58:06.993Z,97366.09
2023-04-16T13:00:33.731Z,97364.25
2023-04-16T13:03:00.633Z,97363.59
2023-04-16T13:05:27.597Z,97375.00
2023-04-16T13:07:54.343Z,97370.47
2023-04-16T13:10:22.249Z,97367.97
2023-04-16T13:12:49.260Z,97368.34
2023-04-16T13:15:16.113Z,97369.88
2023-04-16T13:17:42.877Z,97364.97
2023-04-16T13:20:10.343Z,97366.13
2023-04-16T13:22:37.210Z,97370.84
2023-04-16T13:25:04.149Z,97368.97
2023-04-16T13:27:32.284Z,97374.03
2023-04-16T13:29:59.142Z,97361.84
2023-04-16T13:32:25.910Z,97371.78
2023-04-16T13:34:52.719Z,97359.13
2023-04-16T13:37:19.387Z,97363.28
2023-04-16T13:39:46.167Z,97357.19
2023-04-16T13:42:12.874Z,97368.84
2023-04-16T13:44:39.667Z,97365.66
2023-04-16T13:47:06.599Z,97346.78
2023-04-16T13:49:36.007Z,97374.72
2023-04-16T13:52:03.338Z,97341.06
2023-04-16T13:54:30.030Z,97367.81
2023-04-16T13:56:57.054Z,97364.19
2023-04-16T13:59:23.749Z,97368.78
2023-04-16T14:01:51.253Z,97361.69
2023-04-16T14:04:17.996Z,97364.31
2023-04-16T14:06:45.056Z,97370.13
2023-04-16T14:09:12.022Z,97365.63
2023-04-16T14:11:38.958Z,97360.31
2023-04-16T14:14:05.721Z,97382.19
2023-04-16T14:16:32.595Z,97384.25
2023-04-16T14:18:59.322Z,97364.94
2023-04-16T14:21:27.301Z,97373.97
2023-04-16T14:23:54.103Z,97366.97
2023-04-16T14:26:20.950Z,97364.66
2023-04-16T14:28:47.936Z,97350.47
2023-04-16T14:31:14.727Z,97346.88
2023-04-16T14:33:41.419Z,97367.38
2023-04-16T14:36:08.571Z,97367.97
2023-04-16T14:38:35.365Z,97373.59
2023-04-16T14:41:02.098Z,97363.47
2023-04-16T14:43:28.784Z,97359.06
2023-04-16T14:45:57.358Z,97365.69
2023-04-16T14:48:24.125Z,97368.81
2023-04-16T14:50:51.117Z,97377.06
2023-04-16T14:53:17.932Z,97375.78
2023-04-16T14:55:44.710Z,97372.94
2023-04-16T14:58:11.487Z,97377.38
2023-04-16T15:00:38.311Z,97381.91
2023-04-16T15:03:05.944Z,97386.59
2023-04-16T15:05:33.032Z,97379.88
2023-04-16T15:08:00.762Z,97381.91
2023-04-16T15:10:27.727Z,97383.94
2023-04-16T15:12:54.507Z,97389.34
2023-04-16T15:15:21.374Z,97364.94
2023-04-16T15:17:48.400Z,97365.91
2023-04-16T15:20:15.478Z,97384.06
2023-04-16T15:22:42.315Z,97384.75
2023-04-16T15:25:11.226Z,97388.56
2023-04-16T15:27:37.996Z,97361.88
2023-04-16T15:30:05.329Z,97379.72
2023-04-16T15:32:32.156Z,97386.16
2023-04-16T15:35:00.038Z,97389.72
2023-04-16T15:37:26.858Z,97391.47
2023-04-16T15:39:53.646Z,97386.72
2023-04-16T15:42:20.474Z,97391.91
2023-04-16T15:44:48.183Z,97378.41
2023-04-16T15:47:15.010Z,97384.41
2023-04-16T15:49:42.574Z,97379.63
2023-04-16T15:52:09.839Z,97373.00
2023-04-16T15:54:39.612Z,97398.09
2023-04-16T15:57:06.687Z,97390.75
2023-04-16T15:59:33.462Z,97401.00
2023-04-16T16:02:00.431Z,97400.91
2023-04-16T16:04:28.332Z,97403.03
2023-04-16T16:06:55.881Z,97387.56
2023-04-16T16:09:26.485Z,97397.38
2023-04-16T16:11:54.580Z,97401.69
2023-04-16T16:14:22.651Z,97398.75
2023-04-16T16:16:49.517Z,97402.22
2023-04-16T16:19:18.741Z,97405.19
2023-04-16T16:21:45.650Z,97398.50
2023-04-16T16:24:12.454Z,97390.28
2023-04-16T16:26:39.158Z,97409.53
2023-04-16T16:29:06.039Z,97395.53
2023-04-16T16:31:32.820Z,97399.41
2023-04-16T16:33:59.605Z,97401.34
2023-04-16T16:36:26.747Z,97405.22
2023-04-16T16:38:53.589Z,97409.44
2023-04-16T16:41:20.745Z,97415.88
2023-04-16T16:43:47.487Z,97409.13
2023-04-16T16:46:14.155Z,97413.97
2023-04-16T16:48:41.098Z,97406.72
2023-04-16T16:51:10.867Z,97424.00
2023-04-16T16:53:37.715Z,97406.50
2023-04-16T16:56:04.612Z,97422.22
2023-04-16T16:58:31.744Z,97419.25
2023-04-16T17:00:58.951Z,97433.63
2023-04-16T17:03:25.916Z,97427.28
2023-04-16T17:05:52.793Z,97401.34
2023-04-16T17:08:19.536Z,97434.09
2023-04-16T17:10:46.268Z,97438.91
2023-04-16T17:13:17.676Z,97438.47
2023-04-16T17:15:44.491Z,97446.19
2023-04-16T17:18:11.208Z,97449.16
2023-04-16T17:20:38.161Z,97433.69
2023-04-16T17:23:04.865Z,97446.09
2023-04-16T17:25:31.683Z,97452.34
2023-04-16T17:27:58.455Z,97447.13
2023-04-16T17:30:27.499Z,97453.16
2023-04-16T17:32:54.286Z,97450.31
2023-04-16T17:35:24.955Z,97442.34
2023-04-16T17:37:51.927Z,97454.97
2023-04-16T17:40:18.797Z,97459.84
2023-04-16T17:42:45.886Z,97451.09
2023-04-16T17:45:12.791Z,97462.09
2023-04-16T17:47:39.622Z,97457.22
2023-04-16T17:50:07.418Z,97458.09
2023-04-16T17:52:34.115Z,97457.50
2023-04-16T17:55:01.882Z,97451.78
2023-04-16T17:57:28.782Z,97451.06
2023-04-16T17:59:55.655Z,97466.56
2023-04-16T18:02:22.923Z,97471.69
2023-04-16T18:04:50.030Z,97464.72
2023-04-16T18:07:16.956Z,97474.38
2023-04-16T18:09:43.719Z,97433.78
2023-04-16T18:12:10.550Z,97484.44
2023-04-16T18:14:38.972Z,97451.91
2023-04-16T18:17:06.788Z,97465.91
2023-04-16T18:19:33.662Z,97488.19
2023-04-16T18:22:00.812Z,97473.88
2023-04-16T18:24:27.605Z,97484.00
2023-04-16T18:26:55.301Z,97491.22
2023-04-16T18:29:25.073Z,97478.66
2023-04-16T18:31:52.389Z,97512.44
2023-04-16T18:34:19.480Z,97506.75
2023-04-16T18:36:46.366Z,97507.94
2023-04-16T18:39:13.156Z,97484.19
2023-04-16T18:41:40.907Z,97493.66
2023-04-16T18:44:07.802Z,97502.78
2023-04-16T18:46:34.525Z,97498.84
2023-04-16T18:49:01.634Z,97516.13
2023-04-16T18:51:28.501Z,97491.38
2023-04-16T18:53:55.407Z,97505.59
2023-04-16T18:56:22.086Z,97518.69
2023-04-16T18:58:49.475Z,97536.19
2023-04-16T19:01:16.862Z,97507.91
2023-04-16T19:03:45.634Z,97516.69
2023-04-16T19:06:12.467Z,97509.81
2023-04-16T19:08:39.199Z,97484.72
2023-04-16T19:11:06.093Z,97504.84
2023-04-16T19:13:32.876Z,97501.19
2023-04-16T19:16:01.239Z,97522.44
2023-04-16T19:18:28.106Z,97527.09
2023-04-16T19:21:01.605Z,97536.06
2023-04-16T19:23:29.513Z,97511.78
2023-04-16T19:25:57.200Z,97532.72
2023-04-16T19:28:27.476Z,97522.78
2023-04-16T19:30:54.559Z,97540.22
2023-04-16T19:33:21.364Z,97532.72
2023-04-16T19:35:48.211Z,97530.16
2023-04-16T19:38:15.069Z,97544.25
2023-04-16T19:40:46.859Z,97536.88
2023-04-16T19:43:13.851Z,97536.72
2023-04-16T19:45:44.910Z,97517.19
2023-04-16T19:48:14.701Z,97535.91
2023-04-16T19:50:43.028Z,97521.19
2023-04-16T19:53:11.168Z,97540.34
2023-04-16T19:55:41.859Z,97508.66
2023-04-16T19:58:09.063Z,97544.91
2023-04-16T20:00:41.165Z,97541.78
2023-04-16T20:03:08.250Z,97523.97
2023-04-16T20:05:35.762Z,97524.44
2023-04-16T20:08:02.455Z,97549.94
2023-04-16T20:10:31.749Z,97546.25
2023-04-16T20:12:58.629Z,97542.69
2023-04-16T20:15:25.701Z,97533.53
2023-04-16T20:17:52.745Z,97543.06
2023-04-16T20:20:19.607Z,97544.28
2023-04-16T20:22:48.520Z,97519.97
2023-04-16T20:25:19.249Z,97527.19
2023-04-16T20:27:46.377Z,97496.88
2023-04-16T20:30:14.371Z,97531.78
2023-04-16T20:32:42.529Z,97510.31
2023-04-16T20:35:11.644Z,97516.72
2023-04-16T20:37:38.796Z,97533.03
2023-04-16T20:40:08.928Z,97524.59
2023-04-16T20:42:35.851Z,97497.13
2023-04-16T20:45:03.726Z,97477.31
2023-04-16T20:47:30.677Z,97528.78
2023-04-16T20:49:58.345Z,97547.03
2023-04-16T20:52:25.095Z,97531.94
2023-04-16T20:54:52.493Z,97530.81
2023-04-16T20:57:19.404Z,97527.13
2023-04-16T20:59:46.191Z,97530.44
2023-04-16T21:02:13.249Z,97539.28
2023-04-16T21:04:40.278Z,97533.59
2023-04-16T21:07:08.328Z,97528.81
2023-04-16T21:09:35.026Z,97510.78
2023-04-16T21:12:02.130Z,97533.91
2023-04-16T21:14:28.837Z,97514.59
2023-04-16T21:16:55.778Z,97519.06
2023-04-16T21:19:22.695Z,97524.31
2023-04-16T21:21:49.546Z,97530.53
2023-04-16T21:24:16.351Z,97527.53
2023-04-16T21:26:43.078Z,97517.50
2023-04-16T21:29:09.908Z,97507.72
2023-04-16T21:31:36.894Z,97519.03
2023-04-16T21:34:03.645Z,97498.75
2023-04-16T21:36:32.270Z,97535.09
2023-04-16T21:38:59.095Z,97521.78
2023-04-16T21:41:25.968Z,97536.53
2023-04-16T21:43:52.660Z,97516.19
2023-04-16T21:46:19.533Z,97490.84
2023-04-16T21:48:48.541Z,97489.13
2023-04-16T21:51:15.927Z,97505.56
2023-04-16T21:53:42.853Z,97443.56
2023-04-16T21:56:10.568Z,97527.41
2023-04-16T21:58:37.366Z,97525.78
2023-04-16T22:01:04.069Z,97503.34
2023-04-16T22:03:31.247Z,97509.69
2023-04-16T22:06:01.766Z,97514.28
2023-04-16T22:08:29.855Z,97516.03
2023-04-16T22:11:01.852Z,97508.78
2023-04-16T22:13:33.227Z,97510.69
2023-04-16T22:16:02.927Z,97509.00
2023-04-16T22:18:33.248Z,97490.97
2023-04-16T22:21:00.012Z,97528.81
2023-04-16T22:23:27.944Z,97504.69
2023-04-16T22:25:56.138Z,97522.91
2023-04-16T22:28:23.708Z,97486.06
2023-04-16T22:30:50.624Z,97531.56
2023-04-16T22:33:17.589Z,97515.31
2023-04-16T22:35:44.471Z,97520.53
2023-04-16T22:38:11.489Z,97512.22
2023-04-16T22:40:38.265Z,97535.47
2023-04-16T22:43:05.477Z,97528.56
2023-04-16T22:45:32.322Z,97536.06
2023-04-16T22:47:59.287Z,97536.47
2023-04-16T22:50:26.052Z,97511.69
2023-04-16T22:52:52.793Z,97529.84
2023-04-16T22:55:19.616Z,97537.66
2023-04-16T22:57:47.684Z,97531.63
2023-04-16T23:00:18.055Z,97543.03
2023-04-16T23:02:45.569Z,97535.69
2023-04-16T23:05:12.515Z,97532.72
2023-04-16T23:07:39.328Z,97537.53
2023-04-16T23:10:08.745Z,97536.91
2023-04-16T23:12:37.625Z,97517.41
2023-04-16T23:15:06.604Z,97526.13
2023-04-16T23:17:34.102Z,97534.16
2023-04-16T23:20:00.880Z,97525.94
2023-04-16T23:22:27.744Z,97526.84
2023-04-16T23:24:54.638Z,97513.53
2023-04-16T23:27:21.393Z,97521.53
2023-04-16T23:29:48.021Z,97511.63
2023-04-16T23:32:14.720Z,97495.88
2023-04-16T23:34:42.337Z,97520.44
2023-04-16T23:37:09.081Z,97510.13
2023-04-16T23:39:37.199Z,97524.34
2023-04-16T23:42:04.188Z,97501.00
2023-04-16T23:44:30.871Z,97515.41
2023-04-16T23:46:57.618Z,97511.09
2023-04-16T23:49:24.666Z,97509.81
2023-04-16T23:51:51.502Z,97509.91
2023-04-16T23:54:19.395Z,97527.75
2023-04-16T23:56:46.817Z,97512.31
2023-04-16T23:59:14.076Z,97500.31
